createdAt,value
2018-02-24T00:01:48.870Z,38.40
2018-02-24T00:04:16.356Z,40.00
2018-02-24T00:06:43.839Z,35.72
2018-02-24T00:09:11.329Z,37.17
2018-02-24T00:11:38.817Z,43.70
2018-02-24T00:14:06.296Z,39.90
2018-02-24T00:16:34.538Z,37.60
2018-02-24T00:19:02.038Z,41.80
2018-02-24T00:21:30.270Z,40.97
2018-02-24T00:23:57.754Z,39.17
2018-02-24T00:26:25.991Z,37.78
2018-02-24T00:28:53.475Z,36.70
2018-02-24T00:31:20.998Z,35.70
2018-02-24T00:33:48.476Z,34.08
2018-02-24T00:36:15.963Z,41.37
2018-02-24T00:38:43.459Z,35.67
2018-02-24T00:41:10.949Z,34.08
2018-02-24T00:43:38.431Z,38.78
2018-02-24T00:46:05.911Z,35.22
2018-02-24T00:48:34.160Z,41.30
2018-02-24T00:51:01.635Z,36.38
2018-02-24T00:53:29.878Z,35.80
2018-02-24T00:55:57.354Z,34.95
2018-02-24T00:58:24.847Z,49.08
2018-02-24T01:00:53.086Z,43.67
2018-02-24T01:03:20.590Z,36.72
2018-02-24T01:05:48.067Z,37.30
2018-02-24T01:08:15.556Z,33.78
2018-02-24T01:10:43.031Z,38.40
2018-02-24T01:13:10.513Z,34.10
2018-02-24T01:15:37.987Z,39.47
2018-02-24T01:18:05.480Z,36.58
2018-02-24T01:20:32.990Z,32.80
2018-02-24T01:23:00.475Z,34.72
2018-02-24T01:25:27.948Z,32.30
2018-02-24T01:27:55.422Z,30.98
2018-02-24T01:30:22.958Z,35.47
2018-02-24T01:32:50.433Z,34.38
2018-02-24T01:35:17.918Z,39.17
2018-02-24T01:37:46.152Z,35.88
2018-02-24T01:40:13.653Z,33.25
2018-02-24T01:42:41.907Z,35.17
2018-02-24T01:45:09.455Z,32.88
2018-02-24T01:47:36.914Z,30.27
2018-02-24T01:50:04.412Z,37.13
2018-02-24T01:52:32.665Z,31.17
2018-02-24T01:55:00.196Z,33.95
2018-02-24T01:57:27.685Z,37.58
2018-02-24T01:59:55.517Z,32.03
2018-02-24T02:02:23.006Z,35.95
2018-02-24T02:04:50.482Z,31.87
2018-02-24T02:07:18.722Z,36.97
2018-02-24T02:09:46.198Z,41.13
2018-02-24T02:12:13.680Z,38.55
2018-02-24T02:14:41.922Z,36.58
2018-02-24T02:17:09.530Z,39.20
2018-02-24T02:19:37.014Z,42.83
2018-02-24T02:22:04.490Z,32.80
2018-02-24T02:24:31.977Z,38.33
2018-02-24T02:27:00.267Z,35.08
2018-02-24T02:29:28.507Z,33.53
2018-02-24T02:31:55.985Z,31.33
2018-02-24T02:34:23.471Z,34.88
2018-02-24T02:36:50.946Z,39.85
2018-02-24T02:39:18.425Z,36.85
2018-02-24T02:41:45.895Z,32.17
2018-02-24T02:44:13.376Z,33.50
2018-02-24T02:46:40.849Z,39.28
2018-02-24T02:49:09.088Z,38.28
2018-02-24T02:51:36.562Z,36.78
2018-02-24T02:54:04.046Z,31.40
2018-02-24T02:56:32.301Z,37.38
2018-02-24T02:58:59.784Z,33.90
2018-02-24T03:01:27.265Z,38.70
2018-02-24T03:03:54.750Z,33.60
2018-02-24T03:06:22.227Z,31.37
2018-02-24T03:08:49.698Z,36.30
2018-02-24T03:11:18.323Z,38.25
2018-02-24T03:13:45.792Z,39.67
2018-02-24T03:16:13.286Z,29.42
2018-02-24T03:18:40.763Z,37.20
2018-02-24T03:21:09.020Z,40.85
2018-02-24T03:23:36.477Z,35.75
2018-02-24T03:26:03.975Z,30.58
2018-02-24T03:28:31.446Z,33.15
2018-02-24T03:30:58.915Z,38.20
2018-02-24T03:33:26.388Z,34.13
2018-02-24T03:35:53.870Z,32.78
2018-02-24T03:38:21.360Z,32.85
2018-02-24T03:40:49.585Z,27.90
2018-02-24T03:43:17.169Z,34.33
2018-02-24T03:45:49.167Z,33.55
2018-02-24T03:48:16.644Z,34.80
2018-02-24T03:50:44.134Z,27.13
2018-02-24T03:53:11.609Z,32.33
2018-02-24T03:55:39.087Z,34.75
2018-02-24T03:58:07.335Z,32.97
2018-02-24T04:00:34.814Z,31.33
2018-02-24T04:03:03.048Z,28.10
2018-02-24T04:05:30.531Z,39.33
2018-02-24T04:07:58.003Z,31.05
2018-02-24T04:10:26.253Z,35.78
2018-02-24T04:12:53.718Z,42.33
2018-02-24T04:15:21.199Z,41.42
2018-02-24T04:17:49.437Z,30.37
2018-02-24T04:20:16.923Z,37.85
2018-02-24T04:22:44.461Z,34.15
2018-02-24T04:25:13.450Z,35.00
2018-02-24T04:27:40.935Z,37.50
2018-02-24T04:30:08.431Z,39.10
2018-02-24T04:32:35.901Z,35.67
2018-02-24T04:35:03.386Z,32.10
2018-02-24T04:37:30.951Z,39.95
2018-02-24T04:39:58.447Z,30.52
2018-02-24T04:42:25.910Z,34.03
2018-02-24T04:44:53.385Z,37.97
2018-02-24T04:47:20.887Z,32.50
2018-02-24T04:49:48.377Z,37.92
2018-02-24T04:52:16.603Z,41.08
2018-02-24T04:54:44.080Z,33.22
2018-02-24T04:57:11.639Z,28.77
2018-02-24T04:59:39.114Z,33.33
2018-02-24T05:02:07.346Z,30.92
2018-02-24T05:04:34.828Z,41.58
2018-02-24T05:07:02.295Z,34.35
2018-02-24T05:09:29.775Z,30.90
2018-02-24T05:11:57.246Z,36.88
2018-02-24T05:14:24.731Z,35.47
2018-02-24T05:16:52.188Z,32.30
2018-02-24T05:19:19.650Z,37.10
2018-02-24T05:21:47.114Z,35.72
2018-02-24T05:24:14.599Z,29.58
2018-02-24T05:26:42.087Z,30.90
2018-02-24T05:29:09.558Z,32.75
2018-02-24T05:31:37.043Z,34.20
2018-02-24T05:34:04.516Z,39.72
2018-02-24T05:36:31.994Z,37.60
2018-02-24T05:39:00.235Z,29.30
2018-02-24T05:41:27.710Z,33.90
2018-02-24T05:43:55.182Z,42.38
2018-02-24T05:46:22.662Z,34.63
2018-02-24T05:48:50.147Z,31.80
2018-02-24T05:51:17.618Z,37.33
2018-02-24T05:53:45.086Z,34.05
2018-02-24T05:56:12.564Z,39.53
2018-02-24T05:58:40.044Z,32.10
2018-02-24T06:01:08.289Z,35.60
2018-02-24T06:03:35.759Z,35.17
2018-02-24T06:06:03.230Z,32.38
2018-02-24T06:08:31.471Z,34.40
2018-02-24T06:10:58.954Z,31.25
2018-02-24T06:13:26.418Z,27.95
2018-02-24T06:15:54.663Z,30.37
2018-02-24T06:18:22.134Z,31.42
2018-02-24T06:20:49.612Z,32.28
2018-02-24T06:23:17.862Z,35.30
2018-02-24T06:25:45.333Z,32.08
2018-02-24T06:28:13.593Z,29.63
2018-02-24T06:30:41.062Z,34.10
2018-02-24T06:33:08.549Z,34.90
2018-02-24T06:35:36.803Z,37.88
2018-02-24T06:38:04.271Z,34.47
2018-02-24T06:40:32.527Z,35.63
2018-02-24T06:42:59.999Z,39.17
2018-02-24T06:45:28.250Z,37.33
2018-02-24T06:47:55.730Z,33.03
2018-02-24T06:50:23.211Z,31.52
2018-02-24T06:52:50.686Z,31.33
2018-02-24T06:55:18.183Z,25.05
2018-02-24T06:57:45.644Z,28.48
2018-02-24T07:00:13.122Z,29.52
2018-02-24T07:02:41.359Z,31.27
2018-02-24T07:05:08.843Z,27.95
2018-02-24T07:07:36.309Z,25.70
2018-02-24T07:10:03.791Z,32.05
2018-02-24T07:12:31.261Z,30.62
2018-02-24T07:14:58.758Z,33.35
2018-02-24T07:17:26.221Z,28.90
2018-02-24T07:19:53.694Z,30.40
2018-02-24T07:22:21.195Z,33.72
2018-02-24T07:24:48.671Z,31.08
2018-02-24T07:27:16.158Z,29.60
2018-02-24T07:29:43.624Z,33.33
2018-02-24T07:32:11.119Z,26.20
2018-02-24T07:34:39.350Z,27.92
2018-02-24T07:37:07.851Z,34.30
2018-02-24T07:39:36.103Z,23.90
2018-02-24T07:42:03.594Z,28.12
2018-02-24T07:44:31.833Z,36.35
2018-02-24T07:46:59.315Z,64.25
2018-02-24T07:49:26.794Z,31.60
2018-02-24T07:51:55.059Z,26.92
2018-02-24T07:54:23.303Z,29.20
2018-02-24T07:56:50.787Z,29.23
2018-02-24T07:59:19.175Z,27.73
2018-02-24T08:01:47.434Z,25.95
2018-02-24T08:04:14.912Z,35.35
2018-02-24T08:06:43.153Z,27.98
2018-02-24T08:09:10.650Z,25.98
2018-02-24T08:11:38.895Z,29.42
2018-02-24T08:14:06.380Z,23.75
2018-02-24T08:16:34.626Z,23.92
2018-02-24T08:19:02.108Z,26.30
2018-02-24T08:21:30.359Z,26.55
2018-02-24T08:23:57.839Z,26.27
2018-02-24T08:26:25.313Z,26.12
2018-02-24T08:28:53.567Z,24.70
2018-02-24T08:31:21.055Z,25.10
2018-02-24T08:33:48.543Z,28.83
2018-02-24T08:36:16.022Z,26.87
2018-02-24T08:38:43.499Z,30.65
2018-02-24T08:41:10.994Z,29.05
2018-02-24T08:43:38.457Z,28.73
2018-02-24T08:46:05.949Z,30.45
2018-02-24T08:48:34.187Z,26.48
2018-02-24T08:51:01.666Z,25.83
2018-02-24T08:53:29.166Z,24.55
2018-02-24T08:55:56.650Z,28.42
2018-02-24T08:58:24.134Z,35.20
2018-02-24T09:00:59.779Z,30.10
2018-02-24T09:03:27.262Z,30.98
2018-02-24T09:05:55.978Z,28.17
2018-02-24T09:08:24.232Z,32.47
2018-02-24T09:10:51.720Z,29.23
2018-02-24T09:13:19.954Z,26.73
2018-02-24T09:15:47.442Z,29.02
2018-02-24T09:18:14.920Z,42.20
2018-02-24T09:20:43.166Z,30.65
2018-02-24T09:23:10.644Z,29.42
2018-02-24T09:25:38.130Z,23.35
2018-02-24T09:28:05.603Z,26.87
2018-02-24T09:30:33.085Z,29.00
2018-02-24T09:33:00.588Z,28.80
2018-02-24T09:35:28.834Z,28.23
2018-02-24T09:37:56.319Z,28.62
2018-02-24T09:40:23.782Z,21.00
2018-02-24T09:42:52.031Z,27.30
2018-02-24T09:45:19.511Z,24.48
2018-02-24T09:47:47.760Z,25.88
2018-02-24T09:50:15.264Z,24.25
2018-02-24T09:52:42.755Z,20.52
2018-02-24T09:55:10.235Z,17.97
2018-02-24T09:57:37.718Z,18.80
2018-02-24T10:00:05.967Z,18.65
2018-02-24T10:02:33.449Z,24.95
2018-02-24T10:05:01.690Z,17.53
2018-02-24T10:07:30.098Z,21.23
2018-02-24T10:09:57.575Z,18.95
2018-02-24T10:12:25.826Z,23.20
2018-02-24T10:14:53.310Z,18.13
2018-02-24T10:17:21.548Z,17.30
2018-02-24T10:19:49.024Z,15.63
2018-02-24T10:22:16.488Z,14.50
2018-02-24T10:24:43.960Z,15.43
2018-02-24T10:27:11.427Z,12.13
2018-02-24T10:29:38.908Z,10.73
2018-02-24T10:32:06.399Z,10.83
2018-02-24T10:34:33.850Z,10.50
2018-02-24T10:37:01.341Z,13.37
2018-02-24T10:39:28.803Z,11.27
2018-02-24T10:41:57.049Z,10.83
2018-02-24T10:44:24.532Z,13.57
2018-02-24T10:46:52.011Z,10.47
2018-02-24T10:49:20.234Z,11.47
2018-02-24T10:51:47.717Z,7.85
2018-02-24T10:54:15.179Z,10.80
2018-02-24T10:56:42.647Z,8.60
2018-02-24T10:59:10.879Z,11.70
2018-02-24T11:04:32.634Z,7.77
2018-02-24T11:07:00.103Z,5.77
2018-02-24T11:09:27.606Z,7.80
2018-02-24T11:11:55.086Z,6.43
2018-02-24T11:14:22.533Z,5.70
2018-02-24T11:16:50.006Z,3.67
2018-02-24T11:19:17.463Z,4.37
2018-02-24T11:21:44.946Z,6.40
2018-02-24T11:24:12.398Z,4.60
2018-02-24T11:26:39.873Z,4.70
2018-02-24T11:29:07.362Z,4.30
2018-02-24T11:31:35.216Z,3.00
2018-02-24T11:34:02.696Z,3.00
2018-02-24T11:36:30.174Z,7.57
2018-02-24T11:38:59.399Z,5.03
2018-02-24T11:41:26.853Z,4.53
2018-02-24T11:43:54.352Z,4.20
2018-02-24T11:46:21.823Z,2.50
2018-02-24T11:48:49.330Z,6.53
2018-02-24T11:51:16.786Z,2.23
2018-02-24T11:53:44.258Z,3.27
2018-02-24T11:56:11.719Z,3.03
2018-02-24T11:58:39.187Z,2.43
2018-02-24T12:01:06.668Z,3.03
2018-02-24T12:03:34.905Z,2.70
2018-02-24T12:06:02.367Z,3.57
2018-02-24T12:08:29.832Z,3.00
2018-02-24T12:10:57.282Z,9.23
2018-02-24T12:13:24.764Z,2.00
2018-02-24T12:15:52.982Z,2.73
2018-02-24T12:18:20.448Z,6.37
2018-02-24T12:20:47.904Z,4.40
2018-02-24T12:23:15.367Z,2.50
2018-02-24T12:25:42.847Z,3.67
2018-02-24T12:28:10.335Z,4.40
2018-02-24T12:30:38.554Z,3.50
2018-02-24T12:33:06.026Z,2.83
2018-02-24T12:35:33.522Z,3.80
2018-02-24T12:38:00.989Z,8.27
2018-02-24T12:40:29.207Z,3.37
2018-02-24T12:42:56.678Z,3.70
2018-02-24T12:45:24.152Z,6.20
2018-02-24T12:47:51.616Z,2.10
2018-02-24T12:50:19.091Z,5.63
2018-02-24T12:52:47.344Z,3.50
2018-02-24T12:55:14.803Z,3.43
2018-02-24T12:57:42.308Z,3.13
2018-02-24T13:00:09.776Z,2.80
2018-02-24T13:02:37.248Z,3.00
2018-02-24T13:05:04.717Z,2.53
2018-02-24T13:07:32.183Z,5.13
2018-02-24T13:09:59.661Z,2.60
2018-02-24T13:12:27.134Z,4.80
2018-02-24T13:14:55.345Z,5.00
2018-02-24T13:17:22.826Z,2.83
2018-02-24T13:19:50.315Z,3.80
2018-02-24T13:22:17.788Z,5.63
2018-02-24T13:24:46.038Z,2.50
2018-02-24T13:27:13.490Z,6.23
2018-02-24T13:29:40.980Z,2.03
2018-02-24T13:32:09.207Z,3.80
2018-02-24T13:34:36.673Z,2.63
2018-02-24T13:37:04.130Z,2.80
2018-02-24T13:39:31.606Z,4.87
2018-02-24T13:41:59.396Z,4.77
2018-02-24T13:44:27.626Z,3.30
2018-02-24T13:46:55.093Z,2.20
2018-02-24T13:49:22.564Z,4.23
2018-02-24T13:51:50.020Z,2.30
2018-02-24T13:54:17.483Z,2.63
2018-02-24T13:56:44.946Z,5.00
2018-02-24T13:59:13.190Z,4.40
2018-02-24T14:01:40.664Z,2.80
2018-02-24T14:04:08.136Z,2.90
2018-02-24T14:06:35.596Z,6.83
2018-02-24T14:09:03.062Z,2.63
2018-02-24T14:11:31.294Z,6.20
2018-02-24T14:13:58.774Z,6.20
2018-02-24T14:16:26.252Z,11.20
2018-02-24T14:18:54.490Z,5.40
2018-02-24T14:21:21.951Z,5.87
2018-02-24T14:23:49.438Z,5.07
2018-02-24T14:26:16.899Z,11.90
2018-02-24T14:28:45.125Z,4.30
2018-02-24T14:31:12.573Z,3.00
2018-02-24T14:33:40.043Z,16.63
2018-02-24T14:36:07.526Z,3.40
2018-02-24T14:38:34.996Z,3.80
2018-02-24T14:41:02.460Z,17.20
2018-02-24T14:43:29.955Z,15.60
2018-02-24T14:45:57.404Z,8.93
2018-02-24T14:48:24.881Z,1.90
2018-02-24T14:50:52.350Z,2.40
2018-02-24T14:53:19.815Z,2.30
2018-02-24T14:55:47.271Z,3.03
2018-02-24T14:58:14.746Z,2.00
2018-02-24T15:00:42.211Z,2.77
2018-02-24T15:03:09.677Z,3.50
2018-02-24T15:05:37.159Z,3.60
2018-02-24T15:08:05.395Z,3.10
2018-02-24T15:10:32.858Z,8.33
2018-02-24T15:13:00.342Z,3.03
2018-02-24T15:15:28.558Z,5.07
2018-02-24T15:17:56.013Z,3.40
2018-02-24T15:20:23.506Z,9.60
2018-02-24T15:22:50.964Z,40.37
2018-02-24T15:25:18.442Z,28.67
2018-02-24T15:27:45.902Z,9.40
2018-02-24T15:30:14.136Z,3.73
2018-02-24T15:32:41.614Z,31.80
2018-02-24T15:35:09.091Z,6.40
2018-02-24T15:37:37.315Z,5.03
2018-02-24T15:40:04.791Z,3.87
2018-02-24T15:42:32.272Z,17.13
2018-02-24T15:44:59.743Z,3.73
2018-02-24T15:47:27.969Z,4.33
2018-02-24T15:49:55.448Z,4.30
2018-02-24T15:52:22.917Z,2.63
2018-02-24T15:54:51.193Z,3.47
2018-02-24T15:57:18.672Z,3.70
2018-02-24T15:59:46.909Z,4.93
2018-02-24T16:02:15.147Z,8.70
2018-02-24T16:04:42.626Z,6.57
2018-02-24T16:07:10.091Z,3.33
2018-02-24T16:09:37.559Z,6.03
2018-02-24T16:12:05.035Z,3.60
2018-02-24T16:14:32.520Z,4.03
2018-02-24T16:17:00.750Z,5.97
2018-02-24T16:19:28.220Z,4.53
2018-02-24T16:24:48.974Z,3.63
2018-02-24T16:27:17.196Z,4.35
2018-02-24T16:29:44.674Z,5.10
2018-02-24T16:32:12.148Z,2.60
2018-02-24T16:34:39.626Z,4.30
2018-02-24T16:37:07.864Z,3.42
2018-02-24T16:39:36.095Z,2.60
2018-02-24T16:42:03.568Z,3.12
2018-02-24T16:44:31.031Z,5.30
2018-02-24T16:46:58.494Z,3.20
2018-02-24T16:49:25.967Z,4.27
2018-02-24T16:51:53.435Z,2.83
2018-02-24T16:54:20.912Z,2.70
2018-02-24T16:56:48.379Z,3.27
2018-02-24T16:59:16.621Z,3.00
2018-02-24T17:01:44.077Z,3.47
2018-02-24T17:04:11.567Z,6.17
2018-02-24T17:06:39.786Z,3.85
2018-02-24T17:09:07.269Z,8.60
2018-02-24T17:11:34.740Z,4.90
2018-02-24T17:14:02.237Z,4.85
2018-02-24T17:16:29.699Z,4.70
2018-02-24T17:18:57.184Z,5.30
2018-02-24T17:21:24.662Z,5.75
2018-02-24T17:23:53.167Z,7.12
2018-02-24T17:26:21.419Z,5.50
2018-02-24T17:28:48.905Z,4.53
2018-02-24T17:31:16.380Z,7.20
2018-02-24T17:33:43.862Z,5.60
2018-02-24T17:36:11.353Z,6.82
2018-02-24T17:38:38.840Z,2.97
2018-02-24T17:41:07.074Z,6.87
2018-02-24T17:43:34.548Z,4.68
2018-02-24T17:46:02.035Z,3.92
2018-02-24T17:48:30.262Z,6.32
2018-02-24T17:50:57.746Z,5.40
2018-02-24T17:53:25.218Z,6.18
2018-02-24T17:55:52.701Z,6.97
2018-02-24T17:58:20.210Z,4.10
2018-02-24T18:00:47.687Z,5.70
2018-02-24T18:03:15.154Z,5.28
2018-02-24T18:05:43.420Z,4.10
2018-02-24T18:08:10.896Z,6.43
2018-02-24T18:10:39.139Z,9.02
2018-02-24T18:13:06.639Z,6.93
2018-02-24T18:15:34.159Z,4.78
2018-02-24T18:18:01.632Z,6.50
2018-02-24T18:20:29.127Z,7.10
2018-02-24T18:22:56.658Z,5.15
2018-02-24T18:25:24.910Z,5.43
2018-02-24T18:27:52.407Z,3.87
2018-02-24T18:30:20.650Z,7.70
2018-02-24T18:32:48.127Z,6.72
2018-02-24T18:35:16.381Z,12.32
2018-02-24T18:37:43.900Z,5.00
2018-02-24T18:40:11.386Z,7.18
2018-02-24T18:42:38.858Z,6.70
2018-02-24T18:45:06.335Z,5.10
2018-02-24T18:47:34.570Z,4.35
2018-02-24T18:50:02.047Z,4.72
2018-02-24T18:52:29.527Z,4.25
2018-02-24T18:54:57.774Z,6.03
2018-02-24T18:57:25.242Z,5.45
2018-02-24T18:59:52.714Z,4.30
2018-02-24T19:02:20.965Z,6.65
2018-02-24T19:04:48.450Z,7.15
2018-02-24T19:07:16.703Z,5.78
2018-02-24T19:09:44.172Z,4.93
2018-02-24T19:12:11.643Z,6.22
2018-02-24T19:14:39.911Z,7.62
2018-02-24T19:17:07.380Z,8.35
2018-02-24T19:19:35.668Z,8.57
2018-02-24T19:22:03.906Z,6.72
2018-02-24T19:24:31.389Z,5.95
2018-02-24T19:26:59.635Z,12.63
2018-02-24T19:29:27.120Z,11.52
2018-02-24T19:31:54.590Z,8.80
2018-02-24T19:34:22.826Z,6.28
2018-02-24T19:36:50.303Z,7.10
2018-02-24T19:39:17.770Z,6.72
2018-02-24T19:41:46.011Z,6.65
2018-02-24T19:44:13.480Z,9.52
2018-02-24T19:46:40.971Z,10.10
2018-02-24T19:49:09.195Z,9.30
2018-02-24T19:51:36.671Z,5.28
2018-02-24T19:54:04.148Z,7.50
2018-02-24T19:56:31.636Z,6.95
2018-02-24T19:58:59.107Z,6.65
2018-02-24T20:01:26.578Z,8.50
2018-02-24T20:03:54.078Z,6.18
2018-02-24T20:06:21.554Z,6.35
2018-02-24T20:08:49.806Z,6.43
2018-02-24T20:11:17.295Z,5.53
2018-02-24T20:13:45.548Z,16.90
2018-02-24T20:16:13.026Z,13.35
2018-02-24T20:18:41.263Z,11.38
2018-02-24T20:21:08.749Z,7.43
2018-02-24T20:23:36.987Z,12.85
2018-02-24T20:26:05.231Z,5.45
2018-02-24T20:28:32.731Z,5.80
2018-02-24T20:31:00.199Z,6.75
2018-02-24T20:33:27.666Z,10.10
2018-02-24T20:35:55.146Z,5.37
2018-02-24T20:38:23.375Z,5.70
2018-02-24T20:40:50.850Z,5.55
2018-02-24T20:43:18.315Z,9.52
2018-02-24T20:45:45.785Z,8.02
2018-02-24T20:48:14.062Z,7.07
2018-02-24T20:50:42.319Z,10.93
2018-02-24T20:53:09.782Z,6.53
2018-02-24T20:55:37.263Z,7.45
2018-02-24T20:58:05.498Z,6.10
2018-02-24T21:00:32.975Z,7.20
2018-02-24T21:03:00.447Z,7.20
2018-02-24T21:05:28.691Z,5.90
2018-02-24T21:07:56.151Z,9.15
2018-02-24T21:10:23.622Z,6.10
2018-02-24T21:12:51.102Z,8.55
2018-02-24T21:15:18.556Z,6.10
2018-02-24T21:17:46.792Z,8.00
2018-02-24T21:20:15.027Z,7.40
2018-02-24T21:22:42.486Z,7.12
2018-02-24T21:25:09.967Z,8.75
2018-02-24T21:27:37.444Z,6.35
2018-02-24T21:30:04.928Z,5.40
2018-02-24T21:32:32.393Z,6.10
2018-02-24T21:34:59.864Z,8.70
2018-02-24T21:37:28.106Z,7.07
2018-02-24T21:42:29.507Z,13.48
2018-02-24T21:44:57.750Z,9.48
2018-02-24T21:47:25.223Z,5.78
2018-02-24T21:49:52.691Z,9.77
2018-02-24T21:52:20.943Z,16.25
2018-02-24T21:54:48.418Z,48.08
2018-02-24T21:57:15.885Z,35.45
2018-02-24T21:59:44.117Z,17.12
2018-02-24T22:02:11.614Z,7.50
2018-02-24T22:04:39.847Z,9.25
2018-02-24T22:07:07.332Z,15.63
2018-02-24T22:09:34.784Z,21.35
2018-02-24T22:12:02.259Z,8.95
2018-02-24T22:14:29.714Z,8.13
2018-02-24T22:16:57.950Z,8.38
2018-02-24T22:19:25.419Z,10.38
2018-02-24T22:21:52.887Z,16.37
2018-02-24T22:24:20.360Z,8.00
2018-02-24T22:26:47.829Z,12.80
2018-02-24T22:29:16.068Z,7.85
2018-02-24T22:31:43.550Z,12.30
2018-02-24T22:34:11.018Z,28.87
2018-02-24T22:36:39.258Z,15.98
2018-02-24T22:39:06.764Z,24.35
2018-02-24T22:41:35.030Z,16.98
2018-02-24T22:44:02.486Z,27.20
2018-02-24T22:46:30.730Z,14.43
2018-02-24T22:49:01.046Z,25.42
2018-02-24T22:51:28.558Z,12.07
2018-02-24T22:53:56.774Z,11.15
2018-02-24T22:56:24.259Z,8.23
2018-02-24T22:58:51.710Z,8.13
2018-02-24T23:01:19.181Z,11.85
2018-02-24T23:03:46.662Z,8.95
2018-02-24T23:06:14.933Z,10.40
2018-02-24T23:08:43.170Z,8.13
2018-02-24T23:11:10.658Z,7.68
2018-02-24T23:13:38.111Z,8.98
2018-02-24T23:16:05.581Z,9.55
2018-02-24T23:18:33.814Z,7.35
2018-02-24T23:21:01.282Z,9.05
2018-02-24T23:23:28.747Z,9.30
2018-02-24T23:25:56.235Z,8.75
2018-02-24T23:28:24.465Z,7.32
2018-02-24T23:30:51.976Z,8.15
2018-02-24T23:33:19.475Z,7.45
2018-02-24T23:35:46.930Z,8.30
2018-02-24T23:38:14.420Z,7.12
2018-02-24T23:40:41.906Z,7.93
2018-02-24T23:43:10.159Z,6.25
2018-02-24T23:45:37.636Z,8.80
2018-02-24T23:48:05.894Z,8.60
2018-02-24T23:50:33.356Z,8.25
2018-02-24T23:53:00.830Z,7.47
2018-02-24T23:55:29.063Z,7.18
2018-02-24T23:57:56.903Z,8.85
